PITTSFIELD MILLS DAM SUNCOOK RIVER PITTSFIELD, NH: From 01/08/2022 22:00 to 01/23/2022 06:00

Date PRECIPITATION INCREMENT [IN] WATER TEMPERATURE [F] AIR TEMPERATURE [F] POOL ELEVATION [FT] RESERVOIR RELEASE [CFS]
01/22/2022 23:00 -- -- -- -- 104.0
01/22/2022 22:00 0.00 32.5 6.0 474.81 106.5
01/22/2022 21:00 0.00 32.5 7.0 474.81 107.0
01/22/2022 20:00 0.00 32.5 7.0 474.81 109.3
01/22/2022 19:00 0.00 32.5 10.0 474.82 111.8
01/22/2022 18:00 0.00 32.5 12.0 474.83 114.3
01/22/2022 17:00 0.00 32.5 17.0 474.83 119.0
01/22/2022 16:00 0.00 32.5 23.0 474.84 123.5
01/22/2022 15:00 0.00 32.5 23.0 474.85 120.0
01/22/2022 14:00 0.00 32.5 23.0 474.84 111.0
01/22/2022 13:00 0.00 32.5 18.0 474.81 103.5
01/22/2022 12:00 0.00 32.5 16.0 474.80 97.8
01/22/2022 11:00 0.00 32.5 12.0 474.79 94.0
01/22/2022 10:00 0.00 32.5 2.0 474.78 93.0
01/22/2022 09:00 0.00 32.5 -6.0 474.78 93.5
01/22/2022 08:00 0.00 32.5 -13.0 474.78 94.5
01/22/2022 07:00 0.00 32.5 -13.0 474.79 96.5
01/22/2022 06:00 0.00 32.5 -12.0 474.79 97.5
01/22/2022 05:00 0.00 32.5 -11.0 474.79 98.5
01/22/2022 04:00 0.00 32.5 -10.0 474.79 100.0
01/22/2022 03:00 0.00 32.5 -9.0 474.80 102.5
01/22/2022 02:00 0.00 32.5 -8.0 474.80 104.3
01/22/2022 01:00 0.00 32.5 -7.0 474.81 106.8
01/22/2022 00:00 0.00 32.5 -5.0 474.81 109.3
01/21/2022 23:00 0.00 32.5 -3.0 474.82 111.5
01/21/2022 22:00 0.00 32.5 -1.0 474.82 113.0
01/21/2022 21:00 0.00 32.5 1.0 474.83 115.0
01/21/2022 20:00 0.00 32.5 4.0 474.83 117.0
01/21/2022 19:00 0.00 32.5 6.0 474.84 119.3
01/21/2022 18:00 0.00 32.5 10.0 474.84 123.0
01/21/2022 17:00 0.00 32.5 16.0 474.85 125.8
01/21/2022 16:00 0.00 32.5 17.0 474.86 128.0
01/21/2022 15:00 0.00 32.5 18.0 474.86 128.5
01/21/2022 14:00 0.00 32.5 16.0 474.86 124.5
01/21/2022 13:00 0.00 32.5 16.0 474.85 121.0
01/21/2022 12:00 0.00 32.5 12.0 474.84 116.3
01/21/2022 11:00 0.00 32.5 9.0 474.83 115.0
01/21/2022 10:00 0.00 32.5 7.0 474.83 114.3
01/21/2022 09:00 0.00 32.4 2.0 474.82 110.5
01/21/2022 08:00 0.00 32.4 -4.0 474.83 118.0
01/21/2022 07:00 0.00 32.4 -3.0 474.84 124.0
01/21/2022 06:00 0.00 32.5 -1.0 474.85 126.5
01/21/2022 05:00 0.00 32.5 0.0 474.86 128.0
01/21/2022 04:00 0.00 32.5 2.0 474.86 129.8
01/21/2022 03:00 0.00 32.5 4.0 474.86 132.5
01/21/2022 02:00 0.00 32.5 5.0 474.87 134.5
01/21/2022 01:00 0.00 32.5 7.0 474.87 137.0
01/21/2022 00:00 0.00 32.5 8.0 474.88 138.3
01/20/2022 23:00 0.00 32.5 10.0 474.88 139.5
01/20/2022 22:00 0.00 32.5 11.0 474.88 141.3
01/20/2022 21:00 0.00 32.5 13.0 474.89 143.8
01/20/2022 20:00 0.00 32.5 15.0 474.89 144.8
01/20/2022 19:00 0.00 32.5 17.0 474.90 146.3
01/20/2022 18:00 0.00 32.5 19.0 474.90 147.3
01/20/2022 17:00 0.00 32.5 22.0 474.90 149.0
01/20/2022 16:00 0.00 32.5 25.0 474.90 149.0
01/20/2022 15:00 0.00 32.5 27.0 474.90 150.5
01/20/2022 14:00 0.00 32.5 27.0 474.90 150.5
01/20/2022 13:00 0.00 32.5 27.0 474.91 151.0
01/20/2022 12:00 0.00 32.5 27.0 474.91 150.0
01/20/2022 11:00 0.00 32.5 28.0 474.91 150.8
01/20/2022 10:00 0.00 32.4 30.0 474.91 151.5
01/20/2022 09:00 0.00 32.4 32.0 474.91 153.0
01/20/2022 08:00 0.00 32.4 35.0 474.91 153.5
01/20/2022 07:00 0.00 32.4 33.0 474.91 154.0
01/20/2022 06:00 0.00 32.4 33.0 474.91 155.0
01/20/2022 05:00 0.00 32.4 32.0 474.91 156.0
01/20/2022 04:00 0.00 32.4 33.0 474.91 156.0
01/20/2022 03:00 0.00 32.4 35.0 474.91 156.0
01/20/2022 02:00 0.00 32.5 36.0 474.91 156.0
01/20/2022 01:00 0.00 32.4 36.0 474.91 156.0
01/20/2022 00:00 0.00 32.5 35.0 474.91 156.0
01/19/2022 23:00 0.00 32.5 36.0 474.91 156.0
01/19/2022 22:00 0.00 32.5 33.0 474.91 156.0
01/19/2022 21:00 0.00 32.5 36.0 474.91 156.0
01/19/2022 20:00 0.00 32.5 37.0 474.91 155.8
01/19/2022 19:00 0.00 32.5 39.0 474.91 155.3
01/19/2022 18:00 0.00 32.5 40.0 474.91 155.3
01/19/2022 17:00 0.00 32.5 40.0 474.91 155.3
01/19/2022 16:00 0.00 32.5 40.0 474.91 156.0
01/19/2022 15:00 0.00 32.5 40.0 474.91 158.0
01/19/2022 14:00 0.00 32.5 39.0 474.92 155.3
01/19/2022 13:00 0.00 32.5 37.0 474.91 150.8
01/19/2022 12:00 0.00 32.5 29.0 474.90 147.0
01/19/2022 11:00 0.00 32.5 24.0 474.90 146.5
01/19/2022 10:00 0.00 32.4 15.0 474.90 145.3
01/19/2022 09:00 0.00 32.4 12.0 474.89 145.0
01/19/2022 08:00 0.00 32.4 11.0 474.89 145.0
01/19/2022 07:00 0.00 32.4 9.0 474.89 145.0
01/19/2022 06:00 0.00 32.4 8.0 474.89 145.0
01/19/2022 05:00 0.00 32.4 7.0 474.89 144.5
01/19/2022 04:00 0.00 32.5 6.0 474.89 145.3
01/19/2022 03:00 0.00 32.4 6.0 474.90 146.0
01/19/2022 02:00 0.00 32.5 6.0 474.90 147.0
01/19/2022 01:00 0.00 32.5 8.0 474.90 149.0
01/19/2022 00:00 0.00 32.5 7.0 474.90 150.0
01/18/2022 23:00 0.00 32.5 9.0 474.90 150.0
01/18/2022 22:00 0.00 32.5 11.0 474.90 150.5
01/18/2022 21:00 0.00 32.5 12.0 474.90 151.0
01/18/2022 20:00 0.00 32.5 14.0 474.91 150.8
01/18/2022 19:00 0.00 32.5 15.0 474.90 152.8
01/18/2022 18:00 0.00 32.5 17.0 474.91 153.0
01/18/2022 17:00 0.00 32.5 19.0 474.91 155.3
01/18/2022 16:00 0.00 32.5 21.0 474.92 155.0
01/18/2022 15:00 0.00 32.5 21.0 474.91 153.3
01/18/2022 14:00 0.00 32.5 21.0 474.91 154.0
01/18/2022 13:00 0.00 32.5 22.0 474.89 155.3
01/18/2022 12:00 0.00 32.5 22.0 474.91 148.3
01/18/2022 11:00 0.00 32.5 21.0 474.90 143.3
01/18/2022 10:00 0.00 32.5 21.0 474.89 140.0
01/18/2022 09:00 0.00 32.5 21.0 474.88 137.5
01/18/2022 08:00 0.00 32.5 21.0 474.87 138.3
01/18/2022 07:00 0.00 32.5 22.0 474.88 136.5
01/18/2022 06:00 0.00 32.5 23.0 474.87 133.0
01/18/2022 05:00 0.00 32.5 25.0 474.87 131.8
01/18/2022 04:00 0.00 32.5 28.0 474.87 130.8
01/18/2022 03:00 0.00 32.5 30.0 474.86 129.5
01/18/2022 02:00 0.00 32.5 29.0 474.86 126.5
01/18/2022 01:00 0.00 32.5 30.0 474.85 123.0
01/18/2022 00:00 0.00 32.5 33.0 474.84 120.3
01/17/2022 23:00 0.00 32.5 35.0 474.84 119.5
01/17/2022 22:00 0.00 32.5 35.0 474.84 118.3
01/17/2022 21:00 0.00 32.5 35.0 474.84 115.8
01/17/2022 20:00 0.00 32.5 36.0 474.83 114.5
01/17/2022 19:00 0.00 32.5 37.0 474.83 112.0
01/17/2022 18:00 0.00 32.5 38.0 474.82 111.0
01/17/2022 17:00 0.00 32.5 39.0 474.82 110.5
01/17/2022 16:00 0.01 32.5 41.0 474.82 111.0
01/17/2022 15:00 0.20 32.5 43.0 474.82 107.3
01/17/2022 14:00 0.37 32.5 43.0 474.81 101.5
01/17/2022 13:00 0.50 32.5 43.0 474.79 95.5
01/17/2022 12:00 0.52 32.5 43.0 474.78 87.5
01/17/2022 11:00 0.00 32.5 38.0 474.76 78.8
01/17/2022 10:00 0.00 32.7 32.0 474.74 68.5
01/17/2022 09:00 0.00 32.7 32.0 474.71 67.3
01/17/2022 08:00 0.00 32.7 30.0 474.71 69.8
01/17/2022 07:00 0.00 32.7 27.0 474.73 72.8
01/17/2022 06:00 0.00 32.9 25.0 474.73 71.3
01/17/2022 05:00 0.00 32.9 24.0 474.73 70.5
01/17/2022 04:00 0.00 32.9 24.0 474.72 70.8
01/17/2022 03:00 0.00 32.9 22.0 474.73 70.5
01/17/2022 02:00 0.00 32.9 20.0 474.73 70.0
01/17/2022 01:00 0.00 32.9 19.0 474.72 70.5
01/17/2022 00:00 0.00 32.7 18.0 474.72 70.0
01/16/2022 23:00 0.00 32.7 17.0 474.72 70.0
01/16/2022 22:00 0.00 32.7 16.0 474.72 71.0
01/16/2022 21:00 0.00 32.7 16.0 474.73 71.0
01/16/2022 20:00 0.00 32.7 15.0 474.73 73.0
01/16/2022 19:00 0.00 32.7 17.0 474.73 75.0
01/16/2022 18:00 0.00 32.7 20.0 474.74 78.8
01/16/2022 17:00 0.00 32.7 22.0 474.75 82.0
01/16/2022 16:00 0.00 32.7 25.0 474.76 83.5
01/16/2022 15:00 0.00 32.7 26.0 474.76 83.0
01/16/2022 14:00 0.00 32.7 26.0 474.76 82.5
01/16/2022 13:00 0.00 32.7 21.0 474.75 79.3
01/16/2022 12:00 0.00 32.7 17.0 474.74 73.0
01/16/2022 11:00 0.00 32.7 12.0 474.73 68.3
01/16/2022 10:00 0.00 32.7 8.0 474.72 65.8
01/16/2022 09:00 0.00 32.7 2.0 474.71 64.3
01/16/2022 08:00 0.00 32.5 -6.0 474.71 61.0
01/16/2022 07:00 0.00 32.7 -6.0 474.70 63.8
01/16/2022 06:00 0.00 32.7 -6.0 474.71 66.5
01/16/2022 05:00 0.00 32.9 -6.0 474.72 68.5
01/16/2022 04:00 0.00 32.9 -6.0 474.72 69.5
01/16/2022 03:00 0.00 32.9 -5.0 474.72 70.8
01/16/2022 02:00 0.00 32.9 -3.0 474.73 71.5
01/16/2022 01:00 0.00 32.9 -3.0 474.73 73.3
01/16/2022 00:00 0.00 32.9 -3.0 474.73 74.5
01/15/2022 23:00 0.00 32.9 -2.0 474.74 75.5
01/15/2022 22:00 0.00 32.9 0.0 474.74 77.0
01/15/2022 21:00 0.00 32.9 0.0 474.74 78.0
01/15/2022 20:00 0.00 32.9 1.0 474.75 81.3
01/15/2022 19:00 0.00 32.9 2.0 474.75 84.0
01/15/2022 18:00 0.00 32.9 3.0 474.76 87.0
01/15/2022 17:00 0.00 32.9 4.0 474.77 88.3
01/15/2022 16:00 0.00 32.9 6.0 474.77 90.5
01/15/2022 15:00 0.00 32.9 7.0 474.78 91.5
01/15/2022 14:00 0.00 32.9 6.0 474.77 90.0
01/15/2022 13:00 0.00 32.9 5.0 474.78 90.5
01/15/2022 12:00 0.00 32.9 3.0 474.77 83.5
01/15/2022 11:00 0.00 33.1 2.0 474.75 77.0
01/15/2022 10:00 0.00 33.1 -2.0 474.74 76.3
01/15/2022 09:00 0.00 33.1 -4.0 474.74 76.0
01/15/2022 08:00 0.00 33.3 -5.0 474.74 77.0
01/15/2022 07:00 0.00 33.3 -4.0 474.74 79.0
01/15/2022 06:00 0.00 33.1 -2.0 474.75 82.0
01/15/2022 05:00 0.00 33.1 -1.0 474.75 83.0
01/15/2022 04:00 0.00 33.1 0.0 474.76 84.8
01/15/2022 03:00 0.00 33.1 2.0 474.76 86.5
01/15/2022 02:00 0.00 33.1 3.0 474.76 86.5
01/15/2022 01:00 0.00 32.9 4.0 474.76 90.3
01/15/2022 00:00 0.00 32.9 6.0 474.78 97.0
01/14/2022 23:00 0.00 32.9 9.0 474.79 98.0
01/14/2022 22:00 0.00 32.9 12.0 474.79 97.0
01/14/2022 21:00 0.00 32.9 16.0 474.79 97.3
01/14/2022 20:00 0.00 32.9 19.0 474.79 99.0
01/14/2022 19:00 0.00 32.7 23.0 474.80 97.8
01/14/2022 18:00 0.00 32.7 26.0 474.79 94.3
01/14/2022 17:00 0.00 32.7 30.0 474.80 96.5
01/14/2022 16:00 0.00 32.9 32.0 474.79 98.3
01/14/2022 15:00 0.00 32.7 34.0 474.79 100.3
01/14/2022 14:00 0.00 32.7 36.0 474.80 100.8
01/14/2022 13:00 0.02 32.7 37.0 474.80 104.8
01/14/2022 12:00 0.05 32.7 39.0 474.81 106.0
01/14/2022 11:00 0.01 32.7 36.0 474.81 106.0
01/14/2022 10:00 0.00 32.7 31.0 474.81 105.5
01/14/2022 09:00 0.00 32.7 29.0 474.81 106.0
01/14/2022 08:00 0.00 32.7 29.0 474.81 107.0
01/14/2022 07:00 0.00 32.7 29.0 474.81 107.5
01/14/2022 06:00 0.00 32.7 29.0 474.81 109.0
01/14/2022 05:00 0.00 32.7 29.0 474.82 109.8
01/14/2022 04:00 0.00 32.7 29.0 474.82 110.0
01/14/2022 03:00 0.00 32.7 29.0 474.82 110.0
01/14/2022 02:00 0.00 32.7 28.0 474.82 110.0
01/14/2022 01:00 0.00 32.7 27.0 474.82 110.0
01/14/2022 00:00 0.00 32.7 26.0 474.82 109.8
01/13/2022 23:00 0.00 32.7 27.0 474.82 109.8
01/13/2022 22:00 0.00 32.7 27.0 474.82 109.5
01/13/2022 21:00 0.00 32.7 26.0 474.82 110.0
01/13/2022 20:00 0.00 32.5 27.0 474.82 112.3
01/13/2022 19:00 0.00 32.5 30.0 474.83 114.8
01/13/2022 18:00 0.00 32.5 32.0 474.83 116.0
01/13/2022 17:00 0.00 32.5 33.0 474.83 117.0
01/13/2022 16:00 0.02 32.5 35.0 474.84 118.0
01/13/2022 15:00 0.02 32.5 35.0 474.84 118.3
01/13/2022 14:00 0.02 32.5 34.0 474.84 119.0
01/13/2022 13:00 0.00 32.5 33.0 474.84 119.0
01/13/2022 12:00 0.00 32.5 31.0 474.84 118.8
01/13/2022 11:00 0.00 32.5 29.0 474.84 118.0
01/13/2022 10:00 0.00 32.5 27.0 474.84 118.0
01/13/2022 09:00 0.00 32.5 26.0 474.84 118.0
01/13/2022 08:00 0.00 32.5 25.0 474.84 118.0
01/13/2022 07:00 0.00 32.5 25.0 474.84 116.5
01/13/2022 06:00 0.00 32.5 24.0 474.83 116.5
01/13/2022 05:00 0.00 32.5 23.0 474.83 116.5
01/13/2022 04:00 0.00 32.7 22.0 474.83 115.8
01/13/2022 03:00 0.00 32.7 23.0 474.83 117.5
01/13/2022 02:00 0.00 32.7 25.0 474.84 119.5
01/13/2022 01:00 0.00 32.7 26.0 474.84 119.0
01/13/2022 00:00 0.00 32.7 26.0 474.84 120.0
01/12/2022 23:00 0.00 32.7 26.0 474.84 121.5
01/12/2022 22:00 0.00 32.7 27.0 474.85 124.0
01/12/2022 21:00 0.00 32.7 27.0 474.85 125.0
01/12/2022 20:00 0.00 32.7 28.0 474.85 126.3
01/12/2022 19:00 0.00 32.7 28.0 474.86 127.0
01/12/2022 18:00 0.00 32.7 29.0 474.86 129.5
01/12/2022 17:00 0.00 32.7 29.0 474.86 134.5
01/12/2022 16:00 0.00 32.7 30.0 474.88 140.0
01/12/2022 15:00 0.00 32.7 30.0 474.89 142.8
01/12/2022 14:00 0.00 32.7 29.0 474.89 142.0
01/12/2022 13:00 0.00 32.5 27.0 474.88 139.0
01/12/2022 12:00 0.00 32.5 24.0 474.88 132.5
01/12/2022 11:00 0.00 32.5 18.0 474.86 123.3
01/12/2022 10:00 0.00 32.5 13.0 474.84 117.0
01/12/2022 09:00 0.00 32.5 9.0 474.83 112.5
01/12/2022 08:00 0.00 32.5 5.0 474.82 110.5
01/12/2022 07:00 0.00 32.5 5.0 474.82 108.0
01/12/2022 06:00 0.00 32.7 -1.0 474.81 107.0
01/12/2022 05:00 0.00 32.7 -2.0 474.81 106.5
01/12/2022 04:00 0.00 32.7 -1.0 474.81 105.0
01/12/2022 03:00 0.00 32.7 -3.0 474.81 103.8
01/12/2022 02:00 0.00 32.9 -3.0 474.81 103.5
01/12/2022 01:00 0.00 32.9 -5.0 474.80 102.5
01/12/2022 00:00 0.00 32.9 -5.0 474.80 102.5
01/11/2022 23:00 0.00 32.9 -4.0 474.80 103.0
01/11/2022 22:00 0.00 32.9 -4.0 474.80 102.5
01/11/2022 21:00 0.00 32.9 -3.0 474.80 102.5
01/11/2022 20:00 0.00 32.9 0.0 474.80 103.0
01/11/2022 19:00 0.00 32.9 1.0 474.80 106.0
01/11/2022 18:00 0.00 32.9 3.0 474.81 108.8
01/11/2022 17:00 0.00 32.9 5.0 474.82 110.0
01/11/2022 16:00 0.00 32.9 8.0 474.82 112.8
01/11/2022 15:00 0.00 32.9 8.0 474.82 113.3
01/11/2022 14:00 0.00 32.9 6.0 474.82 110.5
01/11/2022 13:00 0.00 33.1 5.0 474.82 109.3
01/11/2022 12:00 0.00 33.1 3.0 474.82 106.0
01/11/2022 11:00 0.00 33.1 1.0 474.80 104.3
01/11/2022 10:00 0.00 33.1 0.0 474.80 102.8
01/11/2022 09:00 0.00 33.1 0.0 474.80 103.8
01/11/2022 08:00 0.00 33.1 -1.0 474.81 106.5
01/11/2022 07:00 0.00 33.1 1.0 474.81 107.0
01/11/2022 06:00 0.00 33.1 2.0 474.82 113.5
01/11/2022 05:00 0.00 33.1 4.0 474.83 120.3
01/11/2022 04:00 0.00 33.1 6.0 474.85 120.3
01/11/2022 03:00 0.00 33.1 8.0 474.84 122.0
01/11/2022 02:00 0.00 33.1 10.0 474.85 123.0
01/11/2022 01:00 0.00 33.1 12.0 474.85 124.0
01/11/2022 00:00 0.00 33.1 13.0 474.85 126.0
01/10/2022 23:00 0.00 33.1 16.0 474.85 126.0
01/10/2022 22:00 0.00 33.1 17.0 474.85 126.8
01/10/2022 21:00 0.00 33.1 18.0 474.86 127.5
01/10/2022 20:00 0.00 32.9 16.0 474.86 128.5
01/10/2022 19:00 0.00 33.1 15.0 474.86 129.0
01/10/2022 18:00 0.00 33.1 17.0 474.86 129.0
01/10/2022 17:00 0.00 33.1 21.0 474.86 129.3
01/10/2022 16:00 0.00 33.1 23.0 474.86 128.8
01/10/2022 15:00 0.00 33.1 24.0 474.86 128.5
01/10/2022 14:00 0.00 33.1 24.0 474.86 131.3
01/10/2022 13:00 0.00 33.1 24.0 474.86 131.0
01/10/2022 12:00 0.00 32.9 23.0 474.87 130.8
01/10/2022 11:00 0.00 32.9 22.0 474.86 131.5
01/10/2022 10:00 0.00 32.9 22.0 474.86 132.8
01/10/2022 09:00 0.00 32.9 22.0 474.87 133.3
01/10/2022 08:00 0.00 32.9 21.0 474.87 134.5
01/10/2022 07:00 0.00 32.9 22.0 474.87 136.3
01/10/2022 06:00 0.00 32.9 24.0 474.87 134.3
01/10/2022 05:00 0.00 32.9 27.0 474.88 137.8
01/10/2022 04:00 0.00 32.9 28.0 474.88 133.8
01/10/2022 03:00 0.00 32.9 31.0 474.87 135.8
01/10/2022 02:00 0.00 32.9 34.0 474.87 134.3
01/10/2022 01:00 0.03 32.9 36.0 474.88 135.8
01/10/2022 00:00 0.03 32.9 36.0 474.87 135.5
01/09/2022 23:00 0.04 32.7 36.0 474.87 135.0
01/09/2022 22:00 0.00 32.7 36.0 474.87 135.0
01/09/2022 21:00 0.00 32.7 35.0 474.87 135.0
01/09/2022 20:00 0.00 32.7 35.0 474.87 135.5
01/09/2022 19:00 0.00 32.7 35.0 474.88 135.0
01/09/2022 18:00 0.00 32.7 34.0 474.87 134.5
01/09/2022 17:00 0.00 32.5 34.0 474.87 134.0
01/09/2022 16:00 0.00 32.5 35.0 474.87 135.5
01/09/2022 15:00 0.00 32.5 34.0 474.88 134.0
01/09/2022 14:00 0.00 32.5 33.0 474.87 134.0
01/09/2022 13:00 0.00 32.5 33.0 474.87 134.0
01/09/2022 12:00 0.00 32.5 33.0 474.87 132.5
01/09/2022 11:00 0.00 32.5 32.0 474.87 133.0
01/09/2022 10:00 0.00 32.5 30.0 474.87 133.5
01/09/2022 09:00 0.00 32.5 28.0 474.87 133.0
01/09/2022 08:00 0.00 32.7 27.0 474.87 134.0
01/09/2022 07:00 0.00 32.7 21.0 474.87 135.5
01/09/2022 06:00 0.00 32.7 21.0 474.88 137.8
01/09/2022 05:00 0.00 32.7 19.0 474.88 138.0
01/09/2022 04:00 0.00 32.7 15.0 474.88 137.5
01/09/2022 03:00 0.00 32.7 13.0 474.88 138.0
01/09/2022 02:00 0.00 32.7 10.0 474.88 138.5
01/09/2022 01:00 0.00 32.7 9.0 474.88 140.0
01/09/2022 00:00 0.00 32.7 7.0 474.88 141.8
01/08/2022 23:00 -- -- -- -- --
01/08/2022 22:00 -- -- -- -- --